createdAt,value
2022-07-29T00:00:35.996Z,17.61
2022-07-29T00:03:05.925Z,17.59
2022-07-29T00:05:33.872Z,17.58
2022-07-29T00:08:01.676Z,17.56
2022-07-29T00:10:29.422Z,17.54
2022-07-29T00:12:57.314Z,17.53
2022-07-29T00:15:25.260Z,17.53
2022-07-29T00:17:53.244Z,17.53
2022-07-29T00:20:21.149Z,17.51
2022-07-29T00:22:48.915Z,17.52
2022-07-29T00:25:17.056Z,17.52
2022-07-29T00:27:46.775Z,17.54
2022-07-29T00:30:14.559Z,17.54
2022-07-29T00:32:42.392Z,17.56
2022-07-29T00:35:29.284Z,17.57
2022-07-29T00:37:57.086Z,17.57
2022-07-29T00:40:25.069Z,17.58
2022-07-29T00:42:53.292Z,17.59
2022-07-29T00:45:21.249Z,17.59
2022-07-29T00:47:49.916Z,17.59
2022-07-29T00:50:18.882Z,17.58
2022-07-29T00:52:46.765Z,17.58
2022-07-29T00:55:16.928Z,17.58
2022-07-29T00:57:46.327Z,17.59
2022-07-29T01:00:18.583Z,17.59
2022-07-29T01:02:49.314Z,17.58
2022-07-29T01:05:19.909Z,17.58
2022-07-29T01:07:52.216Z,17.58
2022-07-29T01:10:22.137Z,17.51
2022-07-29T01:12:52.360Z,17.59
2022-07-29T01:15:21.031Z,17.57
2022-07-29T01:18:00.767Z,17.55
2022-07-29T01:20:53.436Z,17.53
2022-07-29T01:23:48.825Z,17.51
2022-07-29T01:26:28.709Z,17.50
2022-07-29T01:29:18.189Z,17.49
2022-07-29T01:31:59.445Z,17.51
2022-07-29T01:34:42.226Z,17.53
2022-07-29T01:37:19.559Z,17.53
2022-07-29T01:39:50.574Z,17.56
2022-07-29T01:42:46.056Z,17.57
2022-07-29T01:45:19.656Z,17.58
2022-07-29T01:48:19.120Z,17.57
2022-07-29T01:50:54.784Z,17.55
2022-07-29T01:53:51.063Z,17.55
2022-07-29T01:56:59.225Z,17.54
2022-07-29T01:59:27.374Z,17.55
2022-07-29T02:01:58.526Z,17.56
2022-07-29T02:04:30.326Z,17.57
2022-07-29T02:07:02.337Z,17.56
2022-07-29T02:09:31.251Z,17.58
2022-07-29T02:12:02.301Z,17.59
2022-07-29T02:14:35.151Z,17.61
2022-07-29T02:17:04.096Z,17.61
2022-07-29T02:19:34.077Z,17.61
2022-07-29T02:22:03.157Z,17.61
2022-07-29T02:24:36.858Z,17.61
2022-07-29T02:27:08.472Z,17.59
2022-07-29T02:29:38.231Z,17.52
2022-07-29T02:32:08.485Z,17.56
2022-07-29T02:34:38.886Z,17.56
2022-07-29T02:37:07.128Z,17.57
2022-07-29T02:39:35.893Z,17.59
2022-07-29T02:42:08.528Z,17.61
2022-07-29T02:44:37.066Z,17.64
2022-07-29T02:47:41.545Z,17.69
2022-07-29T02:50:12.508Z,17.72
2022-07-29T02:53:14.017Z,17.73
2022-07-29T02:55:50.013Z,17.72
2022-07-29T02:58:29.346Z,17.70
2022-07-29T03:01:03.320Z,17.70
2022-07-29T03:03:36.960Z,17.71
2022-07-29T03:06:06.286Z,17.73
2022-07-29T03:08:35.855Z,17.76
2022-07-29T03:11:05.705Z,17.78
2022-07-29T03:13:34.257Z,17.83
2022-07-29T03:16:03.895Z,17.89
2022-07-29T03:18:32.664Z,17.93
2022-07-29T03:21:00.991Z,17.95
2022-07-29T03:23:28.906Z,17.97
2022-07-29T03:26:03.752Z,17.95
2022-07-29T03:28:31.959Z,17.91
2022-07-29T03:31:00.486Z,17.88
2022-07-29T03:33:31.390Z,17.85
2022-07-29T03:35:59.354Z,17.80
2022-07-29T03:38:31.532Z,17.78
2022-07-29T03:41:04.528Z,17.75
2022-07-29T03:43:35.616Z,17.73
2022-07-29T03:46:06.934Z,17.72
2022-07-29T03:48:40.841Z,17.72
2022-07-29T03:51:09.006Z,17.76
2022-07-29T03:53:37.602Z,17.80
2022-07-29T03:56:08.129Z,17.84
2022-07-29T03:58:39.659Z,17.85
2022-07-29T04:01:07.449Z,17.85
2022-07-29T04:03:36.497Z,17.85
2022-07-29T04:06:07.777Z,17.85
2022-07-29T04:08:35.770Z,17.86
2022-07-29T04:11:04.859Z,17.90
2022-07-29T04:13:33.910Z,17.69
2022-07-29T04:16:01.720Z,18.00
2022-07-29T04:18:29.544Z,18.07
2022-07-29T04:20:57.337Z,18.15
2022-07-29T04:23:25.073Z,18.23
2022-07-29T04:25:52.888Z,18.34
2022-07-29T04:28:20.658Z,18.45
2022-07-29T04:30:48.565Z,18.57
2022-07-29T04:33:17.419Z,18.67
2022-07-29T04:35:50.087Z,18.76
2022-07-29T04:38:20.469Z,18.93
2022-07-29T04:40:49.734Z,19.23
2022-07-29T04:43:23.219Z,19.36
2022-07-29T04:45:51.668Z,19.46
2022-07-29T04:48:19.652Z,19.72
2022-07-29T04:50:48.440Z,20.28
2022-07-29T04:53:16.327Z,20.55
2022-07-29T04:55:44.294Z,20.93
2022-07-29T04:58:12.871Z,21.55
2022-07-29T05:00:41.363Z,22.26
2022-07-29T05:03:09.241Z,22.95
2022-07-29T05:05:37.177Z,23.56
2022-07-29T05:08:05.292Z,24.03
2022-07-29T05:10:33.762Z,24.37
2022-07-29T05:13:01.638Z,24.67
2022-07-29T05:15:29.449Z,25.00
2022-07-29T05:17:57.871Z,25.24
2022-07-29T05:20:29.267Z,25.57
2022-07-29T05:22:58.699Z,25.74
2022-07-29T05:25:43.608Z,25.90
2022-07-29T05:28:12.442Z,26.37
2022-07-29T05:30:40.311Z,26.84
2022-07-29T05:33:08.198Z,27.29
2022-07-29T05:36:00.181Z,27.55
2022-07-29T05:38:28.857Z,27.67
2022-07-29T05:40:59.648Z,27.78
2022-07-29T05:43:28.699Z,27.62
2022-07-29T05:45:57.258Z,27.15
2022-07-29T05:48:25.409Z,26.68
2022-07-29T05:50:53.354Z,26.54
2022-07-29T05:53:21.327Z,26.84
2022-07-29T05:55:50.321Z,27.20
2022-07-29T05:58:18.167Z,27.09
2022-07-29T06:00:46.213Z,27.06
2022-07-29T06:03:14.086Z,27.21
2022-07-29T06:05:41.916Z,27.59
2022-07-29T06:08:09.743Z,28.16
2022-07-29T06:10:38.907Z,28.94
2022-07-29T06:13:06.794Z,29.26
2022-07-29T06:15:35.133Z,29.66
2022-07-29T06:18:03.133Z,30.01
2022-07-29T06:20:32.538Z,30.19
2022-07-29T06:23:00.908Z,30.38
2022-07-29T06:25:31.856Z,30.64
2022-07-29T06:27:59.714Z,30.89
2022-07-29T06:30:27.779Z,31.08
2022-07-29T06:32:56.297Z,31.20
2022-07-29T06:35:41.144Z,31.51
2022-07-29T06:38:30.406Z,31.69
2022-07-29T06:41:11.151Z,31.62
2022-07-29T06:43:52.572Z,31.72
2022-07-29T06:46:23.938Z,31.88
2022-07-29T06:48:53.534Z,31.93
2022-07-29T06:51:23.909Z,32.06
2022-07-29T06:54:01.837Z,32.36
2022-07-29T06:56:39.595Z,32.68
2022-07-29T06:59:10.539Z,32.53
2022-07-29T07:01:40.655Z,31.89
2022-07-29T07:04:12.326Z,31.31
2022-07-29T07:06:40.606Z,30.95
2022-07-29T07:09:08.455Z,30.72
2022-07-29T07:11:36.533Z,30.92
2022-07-29T07:14:04.629Z,31.42
2022-07-29T07:16:33.150Z,31.40
2022-07-29T07:19:01.878Z,31.02
2022-07-29T07:21:31.018Z,30.52
2022-07-29T07:24:00.395Z,30.21
2022-07-29T07:26:28.633Z,30.21
2022-07-29T07:28:56.558Z,30.64
2022-07-29T07:31:24.453Z,30.96
2022-07-29T07:33:54.581Z,31.05
2022-07-29T07:36:23.474Z,31.16
2022-07-29T07:38:51.717Z,30.94
2022-07-29T07:41:19.597Z,30.95
2022-07-29T07:43:47.672Z,31.52
2022-07-29T07:46:16.321Z,31.84
2022-07-29T07:48:44.650Z,32.24
2022-07-29T07:51:13.000Z,32.57
2022-07-29T07:53:41.003Z,32.65
2022-07-29T07:56:11.863Z,32.09
2022-07-29T07:58:40.687Z,31.62
2022-07-29T08:01:10.137Z,31.18
2022-07-29T08:03:38.945Z,30.80
2022-07-29T08:06:07.690Z,30.49
2022-07-29T08:08:35.600Z,30.14
2022-07-29T08:11:09.007Z,30.22
2022-07-29T08:13:39.125Z,30.87
2022-07-29T08:16:14.265Z,31.88
2022-07-29T08:18:43.439Z,32.78
2022-07-29T08:21:14.781Z,33.61
2022-07-29T08:23:59.626Z,33.90
2022-07-29T08:26:29.730Z,33.97
2022-07-29T08:28:57.544Z,34.17
2022-07-29T08:31:25.596Z,34.45
2022-07-29T08:33:53.537Z,34.95
2022-07-29T08:36:22.134Z,35.21
2022-07-29T08:38:50.666Z,35.54
2022-07-29T08:41:20.620Z,35.79
2022-07-29T08:43:50.176Z,36.16
2022-07-29T08:46:18.671Z,36.31
2022-07-29T08:48:47.133Z,36.52
2022-07-29T08:51:17.886Z,36.57
2022-07-29T08:53:49.439Z,36.34
2022-07-29T08:56:20.444Z,36.34
2022-07-29T08:58:52.180Z,36.47
2022-07-29T09:01:35.141Z,36.00
2022-07-29T09:04:07.463Z,35.69
2022-07-29T09:06:38.648Z,35.65
2022-07-29T09:09:08.511Z,35.55
2022-07-29T09:11:36.674Z,35.57
2022-07-29T09:14:04.673Z,35.64
2022-07-29T09:16:54.153Z,35.34
2022-07-29T09:19:30.024Z,35.05
2022-07-29T09:21:59.949Z,34.88
2022-07-29T09:24:39.588Z,34.62
2022-07-29T09:27:18.765Z,34.02
2022-07-29T09:29:46.780Z,33.41
2022-07-29T09:32:14.694Z,32.95
2022-07-29T09:34:42.413Z,32.80
2022-07-29T09:37:12.765Z,32.94
2022-07-29T09:39:47.378Z,33.09
2022-07-29T09:42:29.376Z,32.95
2022-07-29T09:44:57.390Z,32.74
2022-07-29T09:47:42.555Z,32.54
2022-07-29T09:50:10.409Z,32.09
2022-07-29T09:52:54.718Z,31.76
2022-07-29T09:55:22.545Z,31.45
2022-07-29T09:57:50.361Z,31.11
2022-07-29T10:00:20.509Z,30.83
2022-07-29T10:02:48.768Z,30.44
2022-07-29T10:05:36.582Z,30.21
2022-07-29T10:08:06.007Z,30.12
2022-07-29T10:10:36.699Z,30.02
2022-07-29T10:13:11.023Z,29.94
2022-07-29T10:15:46.368Z,30.00
2022-07-29T10:18:16.133Z,30.16
2022-07-29T10:20:44.356Z,30.49
2022-07-29T10:23:12.473Z,30.85
2022-07-29T10:25:45.641Z,31.11
2022-07-29T10:28:16.727Z,31.30
2022-07-29T10:30:46.643Z,31.30
2022-07-29T10:33:32.821Z,31.14
2022-07-29T10:36:25.284Z,30.93
2022-07-29T10:39:03.490Z,30.64
2022-07-29T10:41:56.685Z,30.42
2022-07-29T10:44:26.655Z,30.42
2022-07-29T10:46:55.813Z,30.61
2022-07-29T10:49:30.331Z,30.90
2022-07-29T10:51:59.250Z,31.21
2022-07-29T10:54:55.024Z,31.45
2022-07-29T10:57:53.226Z,31.75
2022-07-29T11:00:19.604Z,31.85
2022-07-29T11:02:52.357Z,31.79
2022-07-29T11:05:22.178Z,31.65
2022-07-29T11:08:20.206Z,31.45
2022-07-29T11:10:49.958Z,31.26
2022-07-29T11:13:42.978Z,31.22
2022-07-29T11:16:16.023Z,31.24
2022-07-29T11:19:26.414Z,31.31
2022-07-29T11:21:58.886Z,31.32
2022-07-29T11:24:35.698Z,31.28
2022-07-29T11:27:13.365Z,31.17
2022-07-29T11:29:56.473Z,30.98
2022-07-29T11:32:29.511Z,30.76
2022-07-29T11:35:37.286Z,30.58
2022-07-29T11:38:27.935Z,30.50
2022-07-29T11:41:25.390Z,30.47
2022-07-29T11:44:01.580Z,30.51
2022-07-29T11:46:50.515Z,30.61
2022-07-29T11:49:32.789Z,30.70
2022-07-29T11:52:05.487Z,30.79
2022-07-29T11:54:57.117Z,30.94
2022-07-29T11:57:36.260Z,31.02
2022-07-29T12:00:12.353Z,31.10
2022-07-29T12:02:48.721Z,31.21
2022-07-29T12:05:35.934Z,31.33
2022-07-29T12:08:15.058Z,31.21
2022-07-29T12:10:44.327Z,31.12
2022-07-29T12:13:12.575Z,30.97
2022-07-29T12:15:47.232Z,30.80
2022-07-29T12:18:19.553Z,30.69
2022-07-29T12:21:06.147Z,30.54
2022-07-29T12:23:37.137Z,30.43
2022-07-29T12:26:07.200Z,30.46
2022-07-29T12:28:39.950Z,30.56
2022-07-29T12:31:15.141Z,30.64
2022-07-29T12:34:03.259Z,30.72
2022-07-29T12:36:31.453Z,30.77
2022-07-29T12:38:59.371Z,30.87
2022-07-29T12:41:30.084Z,30.92
2022-07-29T12:43:58.039Z,30.87
2022-07-29T12:46:26.269Z,30.80
2022-07-29T12:48:56.119Z,30.72
2022-07-29T12:51:37.647Z,30.68
2022-07-29T12:54:14.613Z,30.68
2022-07-29T12:56:45.325Z,30.71
2022-07-29T12:59:21.909Z,30.65
2022-07-29T13:01:52.225Z,30.55
2022-07-29T13:04:29.508Z,30.50
2022-07-29T13:07:04.545Z,30.47
2022-07-29T13:09:44.190Z,30.50
2022-07-29T13:12:14.651Z,30.57
2022-07-29T13:14:44.859Z,30.65
2022-07-29T13:17:20.390Z,30.71
2022-07-29T13:19:53.603Z,30.83
2022-07-29T13:22:23.893Z,30.78
2022-07-29T13:24:57.038Z,30.68
2022-07-29T13:27:28.924Z,30.53
2022-07-29T13:29:59.799Z,30.37
2022-07-29T13:32:29.666Z,30.18
2022-07-29T13:34:59.795Z,30.02
2022-07-29T13:37:30.746Z,29.93
2022-07-29T13:39:58.717Z,29.86
2022-07-29T13:42:27.304Z,29.77
2022-07-29T13:44:55.521Z,29.68
2022-07-29T13:47:32.395Z,29.57
2022-07-29T13:50:02.280Z,29.57
2022-07-29T13:52:30.356Z,29.64
2022-07-29T13:54:58.219Z,29.61
2022-07-29T13:57:26.066Z,29.64
2022-07-29T13:59:54.550Z,29.61
2022-07-29T14:02:25.791Z,29.59
2022-07-29T14:04:55.233Z,29.58
2022-07-29T14:07:24.313Z,29.65
2022-07-29T14:09:52.256Z,29.69
2022-07-29T14:12:20.443Z,29.65
2022-07-29T14:14:48.319Z,29.60
2022-07-29T14:17:16.688Z,29.64
2022-07-29T14:19:44.586Z,29.64
2022-07-29T14:22:12.355Z,29.68
2022-07-29T14:24:40.574Z,29.76
2022-07-29T14:27:09.408Z,29.86
2022-07-29T14:29:38.755Z,29.86
2022-07-29T14:32:08.385Z,29.91
2022-07-29T14:34:38.037Z,29.92
2022-07-29T14:37:07.632Z,29.80
2022-07-29T14:39:43.191Z,29.69
2022-07-29T14:42:12.808Z,29.62
2022-07-29T14:44:42.783Z,29.66
2022-07-29T14:47:11.256Z,29.71
2022-07-29T14:49:39.287Z,29.71
2022-07-29T14:52:07.163Z,29.66
2022-07-29T14:54:35.236Z,29.63
2022-07-29T14:57:03.044Z,29.59
2022-07-29T14:59:31.233Z,29.54
2022-07-29T15:01:59.663Z,29.52
2022-07-29T15:04:27.772Z,29.46
2022-07-29T15:06:55.556Z,29.38
2022-07-29T15:09:24.194Z,29.32
2022-07-29T15:11:52.040Z,29.21
2022-07-29T15:14:19.986Z,29.06
2022-07-29T15:16:48.366Z,28.96
2022-07-29T15:19:17.376Z,28.89
2022-07-29T15:21:48.813Z,28.78
2022-07-29T15:24:18.163Z,28.65
2022-07-29T15:26:46.855Z,28.52
2022-07-29T15:29:15.461Z,28.41
2022-07-29T15:31:44.295Z,28.28
2022-07-29T15:34:12.353Z,28.14
2022-07-29T15:36:55.523Z,28.01
2022-07-29T15:39:23.608Z,27.92
2022-07-29T15:41:52.012Z,27.82
2022-07-29T15:44:21.222Z,27.74
2022-07-29T15:47:08.996Z,27.69
2022-07-29T15:49:47.190Z,27.63
2022-07-29T15:52:26.191Z,27.61
2022-07-29T15:54:56.683Z,27.57
2022-07-29T15:57:30.314Z,27.51
2022-07-29T15:59:59.416Z,27.44
2022-07-29T16:02:27.323Z,27.39
2022-07-29T16:04:55.169Z,27.33
2022-07-29T16:07:22.981Z,27.27
2022-07-29T16:09:54.436Z,27.21
2022-07-29T16:12:22.651Z,27.16
2022-07-29T16:14:51.262Z,27.12
2022-07-29T16:17:20.184Z,27.07
2022-07-29T16:19:48.491Z,27.04
2022-07-29T16:22:16.578Z,27.01
2022-07-29T16:24:44.604Z,26.98
2022-07-29T16:27:12.713Z,26.94
2022-07-29T16:29:40.605Z,26.88
2022-07-29T16:32:08.475Z,26.83
2022-07-29T16:34:36.366Z,26.79
2022-07-29T16:37:05.136Z,26.76
2022-07-29T16:39:33.129Z,26.71
2022-07-29T16:42:03.945Z,26.65
2022-07-29T16:44:34.893Z,26.56
2022-07-29T16:47:03.908Z,26.49
2022-07-29T16:49:33.073Z,26.43
2022-07-29T16:52:01.021Z,26.34
2022-07-29T16:54:29.047Z,26.19
2022-07-29T16:56:57.197Z,26.00
2022-07-29T16:59:25.320Z,25.80
2022-07-29T17:01:53.176Z,25.58
2022-07-29T17:04:22.865Z,25.37
2022-07-29T17:06:51.086Z,25.15
2022-07-29T17:09:18.873Z,24.95
2022-07-29T17:11:53.508Z,24.79
2022-07-29T17:14:29.466Z,24.65
2022-07-29T17:17:05.946Z,24.56
2022-07-29T17:19:42.711Z,24.48
2022-07-29T17:22:17.109Z,24.42
2022-07-29T17:24:48.261Z,24.37
2022-07-29T17:27:16.507Z,24.33
2022-07-29T17:29:45.198Z,24.31
2022-07-29T17:32:14.431Z,24.27
2022-07-29T17:34:43.070Z,24.20
2022-07-29T17:37:12.118Z,24.14
2022-07-29T17:39:41.651Z,24.11
2022-07-29T17:42:14.340Z,24.05
2022-07-29T17:44:42.226Z,23.94
2022-07-29T17:47:15.896Z,23.86
2022-07-29T17:49:45.412Z,23.77
2022-07-29T17:52:13.551Z,23.67
2022-07-29T17:54:43.473Z,23.58
2022-07-29T17:57:12.370Z,23.48
2022-07-29T17:59:40.269Z,23.37
2022-07-29T18:02:10.140Z,23.28
2022-07-29T18:04:38.232Z,23.25
2022-07-29T18:07:06.177Z,23.20
2022-07-29T18:09:33.988Z,23.10
2022-07-29T18:12:01.777Z,22.96
2022-07-29T18:14:29.620Z,22.84
2022-07-29T18:16:57.712Z,22.75
2022-07-29T18:19:25.805Z,22.67
2022-07-29T18:22:04.911Z,22.61
2022-07-29T18:24:36.387Z,22.55
2022-07-29T18:27:04.373Z,22.48
2022-07-29T18:29:33.297Z,22.38
2022-07-29T18:32:01.852Z,22.30
2022-07-29T18:34:29.959Z,22.25
2022-07-29T18:36:57.958Z,22.20
2022-07-29T18:39:26.246Z,22.15
2022-07-29T18:41:54.007Z,22.13
2022-07-29T18:44:22.591Z,22.06
2022-07-29T18:46:54.449Z,21.99
2022-07-29T18:49:23.305Z,21.91
2022-07-29T18:51:51.459Z,21.78
2022-07-29T18:54:19.547Z,21.67
2022-07-29T18:56:47.548Z,21.57
2022-07-29T18:59:22.143Z,21.49
2022-07-29T19:01:50.433Z,21.45
2022-07-29T19:04:18.873Z,21.40
2022-07-29T19:06:46.830Z,21.36
2022-07-29T19:09:14.858Z,21.32
2022-07-29T19:11:43.232Z,21.33
2022-07-29T19:14:11.268Z,21.32
2022-07-29T19:16:39.162Z,21.32
2022-07-29T19:19:08.603Z,21.32
2022-07-29T19:21:36.564Z,21.30
2022-07-29T19:24:06.674Z,21.27
2022-07-29T19:26:39.051Z,21.22
2022-07-29T19:29:06.890Z,21.21
2022-07-29T19:31:34.971Z,21.23
2022-07-29T19:34:02.871Z,21.25
2022-07-29T19:36:31.451Z,21.25
2022-07-29T19:39:00.534Z,21.27
2022-07-29T19:41:28.703Z,21.28
2022-07-29T19:43:57.325Z,21.30
2022-07-29T19:46:25.441Z,21.32
2022-07-29T19:48:53.626Z,21.34
2022-07-29T19:51:25.161Z,21.41
2022-07-29T19:53:53.059Z,21.48
2022-07-29T19:56:21.018Z,21.53
2022-07-29T19:58:48.801Z,21.55
2022-07-29T20:01:16.906Z,21.56
2022-07-29T20:03:45.065Z,21.59
2022-07-29T20:06:13.568Z,21.59
2022-07-29T20:08:41.385Z,21.52
2022-07-29T20:11:09.598Z,21.45
2022-07-29T20:13:37.480Z,21.37
2022-07-29T20:16:08.301Z,21.29
2022-07-29T20:18:36.303Z,21.26
2022-07-29T20:21:04.840Z,21.27
2022-07-29T20:23:33.421Z,21.25
2022-07-29T20:26:03.464Z,21.22
2022-07-29T20:28:33.053Z,21.15
2022-07-29T20:31:00.936Z,21.03
2022-07-29T20:33:28.785Z,20.94
2022-07-29T20:35:56.758Z,20.87
2022-07-29T20:38:24.516Z,20.85
2022-07-29T20:40:54.529Z,20.84
2022-07-29T20:43:22.455Z,20.83
2022-07-29T20:45:50.282Z,20.79
2022-07-29T20:48:18.235Z,20.74
2022-07-29T20:50:47.659Z,20.72
2022-07-29T20:53:16.848Z,20.74
2022-07-29T20:55:45.142Z,20.75
2022-07-29T20:58:13.092Z,20.73
2022-07-29T21:00:40.827Z,20.68
2022-07-29T21:03:09.685Z,20.66
2022-07-29T21:05:38.315Z,20.67
2022-07-29T21:08:06.211Z,20.60
2022-07-29T21:10:34.025Z,20.68
2022-07-29T21:13:01.964Z,20.63
2022-07-29T21:15:30.535Z,20.59
2022-07-29T21:18:03.057Z,20.58
2022-07-29T21:20:31.307Z,20.59
2022-07-29T21:22:59.353Z,20.64
2022-07-29T21:25:28.418Z,20.69
2022-07-29T21:28:14.708Z,20.73
2022-07-29T21:30:43.689Z,20.77
2022-07-29T21:33:11.645Z,20.78
2022-07-29T21:36:06.301Z,20.78
2022-07-29T21:38:30.216Z,20.77
2022-07-29T21:40:59.103Z,20.72
2022-07-29T21:43:28.906Z,20.69
2022-07-29T21:45:58.904Z,20.68
2022-07-29T21:48:28.662Z,20.61
2022-07-29T21:50:57.309Z,20.54
2022-07-29T21:53:28.186Z,20.48
2022-07-29T21:55:56.109Z,20.41
2022-07-29T21:58:24.780Z,20.39
2022-07-29T22:00:52.839Z,20.40
2022-07-29T22:03:20.590Z,20.45
2022-07-29T22:05:48.429Z,20.49
2022-07-29T22:08:17.354Z,20.50
2022-07-29T22:10:45.521Z,20.49
2022-07-29T22:13:13.308Z,20.48
2022-07-29T22:15:45.340Z,20.47
2022-07-29T22:18:20.448Z,20.45
2022-07-29T22:20:50.265Z,20.43
2022-07-29T22:23:18.163Z,20.42
2022-07-29T22:25:45.967Z,20.43
2022-07-29T22:28:13.757Z,20.45
2022-07-29T22:30:41.890Z,20.45
2022-07-29T22:33:09.710Z,20.42
2022-07-29T22:35:48.477Z,20.41
2022-07-29T22:38:20.784Z,20.42
2022-07-29T22:40:50.742Z,20.40
2022-07-29T22:43:18.874Z,20.38
2022-07-29T22:45:46.866Z,20.34
2022-07-29T22:48:14.763Z,20.32
2022-07-29T22:50:42.735Z,20.33
2022-07-29T22:53:10.596Z,20.20
2022-07-29T22:55:38.498Z,20.38
2022-07-29T22:58:06.385Z,20.40
2022-07-29T23:00:34.317Z,20.41
2022-07-29T23:03:02.139Z,20.40
2022-07-29T23:05:29.957Z,20.38
2022-07-29T23:07:57.795Z,20.38
2022-07-29T23:10:26.748Z,20.37
2022-07-29T23:12:54.606Z,20.33
2022-07-29T23:15:23.148Z,20.29
2022-07-29T23:17:50.951Z,20.23
2022-07-29T23:20:19.294Z,20.19
2022-07-29T23:22:47.144Z,20.15
2022-07-29T23:25:14.954Z,20.10
2022-07-29T23:27:42.740Z,20.04
2022-07-29T23:30:12.060Z,20.01
2022-07-29T23:32:39.905Z,19.95
2022-07-29T23:35:08.651Z,19.96
2022-07-29T23:37:36.676Z,19.95
2022-07-29T23:40:05.575Z,19.94
2022-07-29T23:42:33.334Z,19.93
2022-07-29T23:45:01.663Z,19.91
2022-07-29T23:47:29.464Z,19.89
2022-07-29T23:49:57.813Z,19.90
2022-07-29T23:52:25.635Z,19.91
2022-07-29T23:54:53.780Z,19.91
2022-07-29T23:57:24.587Z,19.93
2022-07-29T23:59:54.266Z,19.94
